CMA CGM Herodote — MFEP — position and weather

sailwx.info

Track history (hours):
 
Tides and Currents Weather Stations Pressure Air Temp Water Temp Dewpoint Dewpoint Depression Visibility Wind Speed Wind Dir Waves Ship Positions

CMA CGM Herodote

Last reported at 2015-Jul-26 02:32 UTC. Time now 2015-Jul-28 08:23 UTC.
Position N 37°32' W 033°24'.

Length 170 m; draft 9.3 m.

Type: Ship (hazmat cat A). MMSI: 235051085.

Date/timePositionNaut miles runAvg speedWind from/ knotsBaromVisibWave heightAir tempDewpointWater temp
2015-Jul-26 02:32N 37°32' W 033°24'2118.5
2015-Jul-26 01:24N 37°42' W 033°01'1518.2
2015-Jul-26 00:33N 37°49' W 032°44'1818.4
2015-Jul-25 23:33N 37°58' W 032°24'1818.3
2015-Jul-25 22:33N 38°07' W 032°03'1917.9
2015-Jul-25 21:31N 38°16' W 031°43'1717.6
2015-Jul-25 20:33N 38°24' W 031°24'1817.9
2015-Jul-25 19:33N 38°32' W 031°04'1818.1
2015-Jul-25 18:33N 38°41' W 030°43'1818.2
2015-Jul-25 17:33N 38°50' W 030°23'1818.2
2015-Jul-25 16:33N 38°59' W 030°03'1818.3
2015-Jul-25 15:33N 39°08' W 029°42'1918.5
2015-Jul-25 14:33N 39°17' W 029°21'1818.1
2015-Jul-25 13:33N 39°25' W 029°01'1818.3
2015-Jul-25 12:33N 39°34' W 028°40'1818.0
2015-Jul-25 11:33N 39°43' W 028°20'1817.8
2015-Jul-25 10:33N 39°52' W 027°60'2518.0
2015-Jul-25 09:10N 40°04' W 027°32'1117.9
2015-Jul-25 08:33N 40°09' W 027°19'1918.0
2015-Jul-25 07:31N 40°18' W 026°57'1918.1
2015-Jul-25 06:28N 40°28' W 026°36'  
2015-Jul-22 14:33N 49°57' W 003°05'1816.5
2015-Jul-22 13:30N 50°00' W 002°38'5514.0
2015-Jul-22 09:33N 49°49' W 001°14'1616.0
2015-Jul-22 08:34N 49°44' W 000°51'1817.7
2015-Jul-22 07:33N 49°37' W 000°26'1515.2
2015-Jul-22 06:34N 49°31' W 000°04'9 9.3
2015-Jul-22 05:33N 49°28' E 000°09'1 0.5
2015-Jul-22 04:31N 49°29' E 000°10'0 0.0
2015-Jul-22 03:31N 49°29' E 000°10'0 0.0
2015-Jul-22 02:31N 49°29' E 000°10'0 0.0
2015-Jul-22 01:31N 49°29' E 000°10'0 0.0
2015-Jul-22 00:31N 49°29' E 000°10'0 0.0
2015-Jul-21 23:31N 49°29' E 000°10'0 0.0
2015-Jul-21 22:31N 49°29' E 000°10'0 0.0
2015-Jul-21 21:31N 49°29' E 000°10'0 0.0
2015-Jul-21 20:31N 49°29' E 000°10'0 0.0
2015-Jul-21 19:31N 49°29' E 000°10'0 0.0
2015-Jul-21 18:31N 49°29' E 000°10'0 0.0
2015-Jul-21 17:31N 49°29' E 000°10'0 0.0
2015-Jul-21 16:31N 49°29' E 000°10'0 0.0
2015-Jul-21 15:31N 49°29' E 000°10'0 0.0
2015-Jul-21 14:31N 49°29' E 000°10'0 0.0
2015-Jul-21 13:31N 49°29' E 000°10'0 0.0
2015-Jul-21 12:31N 49°29' E 000°10'0 0.0
2015-Jul-21 11:31N 49°29' E 000°10'0 0.0
2015-Jul-21 10:31N 49°29' E 000°10'0 0.0
2015-Jul-21 09:31N 49°29' E 000°10'0 0.0
2015-Jul-21 08:31N 49°29' E 000°10'0 0.0
2015-Jul-21 07:31N 49°29' E 000°10'0 0.0
2015-Jul-21 06:31N 49°29' E 000°10'0 0.0
2015-Jul-21 05:31N 49°29' E 000°10'0 0.0
2015-Jul-21 04:31N 49°29' E 000°10'3 3.2
2015-Jul-21 03:34N 49°29' E 000°05'1110.9
2015-Jul-21 02:34N 49°32' W 000°11'1615.6
2015-Jul-21 01:33N 49°48' W 000°12'4815.0
2015-Jul-20 22:20N 50°31' E 000°21'1317.1
2015-Jul-20 21:33N 50°38' E 000°39'3919.1
2015-Jul-20 19:32N 51°03' E 001°26'1818.1
2015-Jul-20 18:33N 51°14' E 001°47'1717.1
2015-Jul-20 17:33N 51°29' E 002°02'1615.7
2015-Jul-20 16:32N 51°41' E 002°19'3514.3
2015-Jul-20 14:07N 52°02' E 003°03'1017.1
2015-Jul-20 13:33N 52°03' E 003°19'1717.6
2015-Jul-20 12:33N 52°03' E 003°47'1312.8
2015-Jul-20 11:33N 51°59' E 004°07'1111.2
2015-Jul-20 10:33N 51°54' E 004°23'1 1.2
2015-Jul-20 09:33N 51°53' E 004°24'0 0.0
2015-Jul-20 08:32N 51°53' E 004°24'0 0.0
2015-Jul-20 07:32N 51°53' E 004°24'0 0.0
2015-Jul-20 06:32N 51°53' E 004°24'0 0.0
2015-Jul-20 05:32N 51°53' E 004°24'0 0.0
2015-Jul-20 04:32N 51°53' E 004°24'0 0.0
2015-Jul-20 03:32N 51°53' E 004°24'0 0.0
2015-Jul-20 02:32N 51°53' E 004°24'0 0.0
2015-Jul-20 01:32N 51°53' E 004°24'0 0.0
2015-Jul-20 00:32N 51°53' E 004°24'0 0.0
2015-Jul-19 23:32N 51°53' E 004°24'0 0.0
2015-Jul-19 22:32N 51°53' E 004°24'0 0.0
2015-Jul-19 21:32N 51°53' E 004°24'0 0.0
2015-Jul-19 20:32N 51°53' E 004°24'0 0.0
2015-Jul-19 19:32N 51°53' E 004°24'0 0.0
2015-Jul-19 18:32N 51°53' E 004°24'0 0.0
2015-Jul-19 17:32N 51°53' E 004°24'0 0.0
2015-Jul-19 16:32N 51°53' E 004°24'0 0.0
2015-Jul-19 15:29N 51°53' E 004°24'0 0.0
2015-Jul-19 14:32N 51°53' E 004°24'0 0.0
2015-Jul-19 13:32N 51°53' E 004°24'0 0.0
2015-Jul-19 12:32N 51°53' E 004°24'0 0.0
2015-Jul-19 11:32N 51°53' E 004°24'0 0.0
2015-Jul-19 10:32N 51°53' E 004°24'0 0.0
2015-Jul-19 09:32N 51°53' E 004°24'0 0.0
2015-Jul-19 08:32N 51°53' E 004°24'0 0.0
2015-Jul-19 07:32N 51°53' E 004°24'0 0.0
2015-Jul-19 06:32N 51°53' E 004°24'0 0.0
2015-Jul-19 05:33N 51°53' E 004°24'4 4.1
2015-Jul-19 04:33N 51°54' E 004°18'4410.9
2015-Jul-19 00:33N 51°51' E 003°07'1212.1
2015-Jul-18 23:33N 51°48' E 002°48'1313.0
2015-Jul-18 22:34N 51°52' E 002°28'1212.0
2015-Jul-18 21:33N 51°46' E 002°11'1212.0
2015-Jul-18 20:33N 51°39' E 001°56'1312.9
2015-Jul-18 19:33N 51°31' E 001°39'8 7.8
2015-Jul-18 18:33N 51°26' E 001°30'1313.0
2015-Jul-18 17:33N 51°29' E 001°09'1615.6
2015-Jul-18 16:33N 51°30' E 000°44'1313.3
2015-Jul-18 15:34N 51°27' E 000°23'2 2.1
2015-Jul-18 14:34N 51°27' E 000°20'0 0.0
2015-Jul-18 13:34N 51°27' E 000°20'0 0.0
2015-Jul-18 12:34N 51°27' E 000°20'0 0.0
2015-Jul-18 11:34N 51°27' E 000°20'0 0.0
2015-Jul-18 10:34N 51°27' E 000°20'0 0.0
2015-Jul-18 09:34N 51°27' E 000°20'0 0.0
2015-Jul-18 08:34N 51°27' E 000°20'0 0.0
2015-Jul-18 07:34N 51°27' E 000°20'0 0.0
2015-Jul-18 06:34N 51°27' E 000°20'0 0.0
2015-Jul-18 05:34N 51°27' E 000°20'0 0.0
2015-Jul-18 04:34N 51°27' E 000°20'1 1.0
2015-Jul-18 03:34N 51°27' E 000°21'1010.3
2015-Jul-18 02:33N 51°30' E 000°37'1313.3
2015-Jul-18 01:34N 51°29' E 000°58'1414.4
2015-Jul-18 00:34N 51°29' E 001°22'5 5.4
2015-Jul-17 23:33N 51°30' E 001°30'0 0.4
2015-Jul-17 22:31N 51°30' E 001°30'0 0.1
2015-Jul-17 21:31N 51°31' E 001°30'0 0.1
2015-Jul-17 20:31N 51°31' E 001°30'0 0.0
2015-Jul-17 19:31N 51°31' E 001°30'2 2.1
2015-Jul-17 18:33N 51°29' E 001°32'1312.6
2015-Jul-17 17:33N 51°17' E 001°37'1313.0
2015-Jul-17 16:34N 51°04' E 001°36'1414.1
2015-Jul-17 15:34N 50°52' E 001°25'1313.4
2015-Jul-17 14:33N 50°39' E 001°16'1613.5
2015-Jul-17 13:21N 50°30' E 000°55'8714.9
2015-Jul-17 07:33N 50°07' W 001°15'1515.3
2015-Jul-17 06:32N 50°03' W 001°39'1513.8
2015-Jul-17 05:29N 49°59' W 002°00'1112.3
2015-Jul-17 04:33N 49°56' W 002°17'12412.0
2015-Jul-16 18:15N 48°58' W 005°06'3713.8
2015-Jul-16 15:33N 48°33' W 005°47'  
Track history (hours):
 
Tides and Currents Weather Stations Pressure Air Temp Water Temp Dewpoint Dewpoint Depression Visibility Wind Speed Wind Dir Waves Ship Positions

CMA CGM Herodote

Last reported at 2015-Jul-26 02:32 UTC. Time now 2015-Jul-28 08:23 UTC.
Position N 37°32' W 033°24'.

Length 170 m; draft 9.3 m.

Type: Ship (hazmat cat A). MMSI: 235051085.

Date/timePositionNaut miles runAvg speedWind from/ knotsBaromVisibWave heightAir tempDewpointWater temp
2015-Jul-26 02:32N 37°32' W 033°24'2118.5
2015-Jul-26 01:24N 37°42' W 033°01'1518.2
2015-Jul-26 00:33N 37°49' W 032°44'1818.4
2015-Jul-25 23:33N 37°58' W 032°24'1818.3
2015-Jul-25 22:33N 38°07' W 032°03'1917.9
2015-Jul-25 21:31N 38°16' W 031°43'1717.6
2015-Jul-25 20:33N 38°24' W 031°24'1817.9
2015-Jul-25 19:33N 38°32' W 031°04'1818.1
2015-Jul-25 18:33N 38°41' W 030°43'1818.2
2015-Jul-25 17:33N 38°50' W 030°23'1818.2
2015-Jul-25 16:33N 38°59' W 030°03'1818.3
2015-Jul-25 15:33N 39°08' W 029°42'1918.5
2015-Jul-25 14:33N 39°17' W 029°21'1818.1
2015-Jul-25 13:33N 39°25' W 029°01'1818.3
2015-Jul-25 12:33N 39°34' W 028°40'1818.0
2015-Jul-25 11:33N 39°43' W 028°20'1817.8
2015-Jul-25 10:33N 39°52' W 027°60'2518.0
2015-Jul-25 09:10N 40°04' W 027°32'1117.9
2015-Jul-25 08:33N 40°09' W 027°19'1918.0
2015-Jul-25 07:31N 40°18' W 026°57'1918.1
2015-Jul-25 06:28N 40°28' W 026°36'  
2015-Jul-22 14:33N 49°57' W 003°05'1816.5
2015-Jul-22 13:30N 50°00' W 002°38'5514.0
2015-Jul-22 09:33N 49°49' W 001°14'1616.0
2015-Jul-22 08:34N 49°44' W 000°51'1817.7
2015-Jul-22 07:33N 49°37' W 000°26'1515.2
2015-Jul-22 06:34N 49°31' W 000°04'9 9.3
2015-Jul-22 05:33N 49°28' E 000°09'1 0.5
2015-Jul-22 04:31N 49°29' E 000°10'0 0.0
2015-Jul-22 03:31N 49°29' E 000°10'0 0.0
2015-Jul-22 02:31N 49°29' E 000°10'0 0.0
2015-Jul-22 01:31N 49°29' E 000°10'0 0.0
2015-Jul-22 00:31N 49°29' E 000°10'0 0.0
2015-Jul-21 23:31N 49°29' E 000°10'0 0.0
2015-Jul-21 22:31N 49°29' E 000°10'0 0.0
2015-Jul-21 21:31N 49°29' E 000°10'0 0.0
2015-Jul-21 20:31N 49°29' E 000°10'0 0.0
2015-Jul-21 19:31N 49°29' E 000°10'0 0.0
2015-Jul-21 18:31N 49°29' E 000°10'0 0.0
2015-Jul-21 17:31N 49°29' E 000°10'0 0.0
2015-Jul-21 16:31N 49°29' E 000°10'0 0.0
2015-Jul-21 15:31N 49°29' E 000°10'0 0.0
2015-Jul-21 14:31N 49°29' E 000°10'0 0.0
2015-Jul-21 13:31N 49°29' E 000°10'0 0.0
2015-Jul-21 12:31N 49°29' E 000°10'0 0.0
2015-Jul-21 11:31N 49°29' E 000°10'0 0.0
2015-Jul-21 10:31N 49°29' E 000°10'0 0.0
2015-Jul-21 09:31N 49°29' E 000°10'0 0.0
2015-Jul-21 08:31N 49°29' E 000°10'0 0.0
2015-Jul-21 07:31N 49°29' E 000°10'0 0.0
2015-Jul-21 06:31N 49°29' E 000°10'0 0.0
2015-Jul-21 05:31N 49°29' E 000°10'0 0.0
2015-Jul-21 04:31N 49°29' E 000°10'3 3.2
2015-Jul-21 03:34N 49°29' E 000°05'1110.9
2015-Jul-21 02:34N 49°32' W 000°11'1615.6
2015-Jul-21 01:33N 49°48' W 000°12'4815.0
2015-Jul-20 22:20N 50°31' E 000°21'1317.1
2015-Jul-20 21:33N 50°38' E 000°39'3919.1
2015-Jul-20 19:32N 51°03' E 001°26'1818.1
2015-Jul-20 18:33N 51°14' E 001°47'1717.1
2015-Jul-20 17:33N 51°29' E 002°02'1615.7
2015-Jul-20 16:32N 51°41' E 002°19'3514.3
2015-Jul-20 14:07N 52°02' E 003°03'1017.1
2015-Jul-20 13:33N 52°03' E 003°19'1717.6
2015-Jul-20 12:33N 52°03' E 003°47'1312.8
2015-Jul-20 11:33N 51°59' E 004°07'1111.2
2015-Jul-20 10:33N 51°54' E 004°23'1 1.2
2015-Jul-20 09:33N 51°53' E 004°24'0 0.0
2015-Jul-20 08:32N 51°53' E 004°24'0 0.0
2015-Jul-20 07:32N 51°53' E 004°24'0 0.0
2015-Jul-20 06:32N 51°53' E 004°24'0 0.0
2015-Jul-20 05:32N 51°53' E 004°24'0 0.0
2015-Jul-20 04:32N 51°53' E 004°24'0 0.0
2015-Jul-20 03:32N 51°53' E 004°24'0 0.0
2015-Jul-20 02:32N 51°53' E 004°24'0 0.0
2015-Jul-20 01:32N 51°53' E 004°24'0 0.0
2015-Jul-20 00:32N 51°53' E 004°24'0 0.0
2015-Jul-19 23:32N 51°53' E 004°24'0 0.0
2015-Jul-19 22:32N 51°53' E 004°24'0 0.0
2015-Jul-19 21:32N 51°53' E 004°24'0 0.0
2015-Jul-19 20:32N 51°53' E 004°24'0 0.0
2015-Jul-19 19:32N 51°53' E 004°24'0 0.0
2015-Jul-19 18:32N 51°53' E 004°24'0 0.0
2015-Jul-19 17:32N 51°53' E 004°24'0 0.0
2015-Jul-19 16:32N 51°53' E 004°24'0 0.0
2015-Jul-19 15:29N 51°53' E 004°24'0 0.0
2015-Jul-19 14:32N 51°53' E 004°24'0 0.0
2015-Jul-19 13:32N 51°53' E 004°24'0 0.0
2015-Jul-19 12:32N 51°53' E 004°24'0 0.0
2015-Jul-19 11:32N 51°53' E 004°24'0 0.0
2015-Jul-19 10:32N 51°53' E 004°24'0 0.0
2015-Jul-19 09:32N 51°53' E 004°24'0 0.0
2015-Jul-19 08:32N 51°53' E 004°24'0 0.0
2015-Jul-19 07:32N 51°53' E 004°24'0 0.0
2015-Jul-19 06:32N 51°53' E 004°24'0 0.0
2015-Jul-19 05:33N 51°53' E 004°24'4 4.1
2015-Jul-19 04:33N 51°54' E 004°18'4410.9
2015-Jul-19 00:33N 51°51' E 003°07'1212.1
2015-Jul-18 23:33N 51°48' E 002°48'1313.0
2015-Jul-18 22:34N 51°52' E 002°28'1212.0
2015-Jul-18 21:33N 51°46' E 002°11'1212.0
2015-Jul-18 20:33N 51°39' E 001°56'1312.9
2015-Jul-18 19:33N 51°31' E 001°39'8 7.8
2015-Jul-18 18:33N 51°26' E 001°30'1313.0
2015-Jul-18 17:33N 51°29' E 001°09'1615.6
2015-Jul-18 16:33N 51°30' E 000°44'1313.3
2015-Jul-18 15:34N 51°27' E 000°23'2 2.1
2015-Jul-18 14:34N 51°27' E 000°20'0 0.0
2015-Jul-18 13:34N 51°27' E 000°20'0 0.0
2015-Jul-18 12:34N 51°27' E 000°20'0 0.0
2015-Jul-18 11:34N 51°27' E 000°20'0 0.0
2015-Jul-18 10:34N 51°27' E 000°20'0 0.0
2015-Jul-18 09:34N 51°27' E 000°20'0 0.0
2015-Jul-18 08:34N 51°27' E 000°20'0 0.0
2015-Jul-18 07:34N 51°27' E 000°20'0 0.0
2015-Jul-18 06:34N 51°27' E 000°20'0 0.0
2015-Jul-18 05:34N 51°27' E 000°20'0 0.0
2015-Jul-18 04:34N 51°27' E 000°20'1 1.0
2015-Jul-18 03:34N 51°27' E 000°21'1010.3
2015-Jul-18 02:33N 51°30' E 000°37'1313.3
2015-Jul-18 01:34N 51°29' E 000°58'1414.4
2015-Jul-18 00:34N 51°29' E 001°22'5 5.4
2015-Jul-17 23:33N 51°30' E 001°30'0 0.4
2015-Jul-17 22:31N 51°30' E 001°30'0 0.1
2015-Jul-17 21:31N 51°31' E 001°30'0 0.1
2015-Jul-17 20:31N 51°31' E 001°30'0 0.0
2015-Jul-17 19:31N 51°31' E 001°30'2 2.1
2015-Jul-17 18:33N 51°29' E 001°32'1312.6
2015-Jul-17 17:33N 51°17' E 001°37'1313.0
2015-Jul-17 16:34N 51°04' E 001°36'1414.1
2015-Jul-17 15:34N 50°52' E 001°25'1313.4
2015-Jul-17 14:33N 50°39' E 001°16'1613.5
2015-Jul-17 13:21N 50°30' E 000°55'8714.9
2015-Jul-17 07:33N 50°07' W 001°15'1515.3
2015-Jul-17 06:32N 50°03' W 001°39'1513.8
2015-Jul-17 05:29N 49°59' W 002°00'1112.3
2015-Jul-17 04:33N 49°56' W 002°17'12412.0
2015-Jul-16 18:15N 48°58' W 005°06'3713.8
2015-Jul-16 15:33N 48°33' W 005°47'  

Dump ship's entire track history